Terminal Aerodrome Forecast
Issued by NWS

Home | Current Version | Previous Version | Graphics & Text | Print | Product List | Glossary On
Versions: 1 2 3 4 5 6 7 8 9 10 11 12 13 14 15
000
FTUS43 KBIS 160500
TAFJMS
TAF
KJMS 160526Z 1606/1706 09020G26KT P6SM SCT025 OVC070
     FM160800 08022G30KT 6SM -SN BR BKN015 OVC025
     FM161000 07024G32KT 3SM -SN OVC015
     FM162000 04020G26KT P6SM BKN025 OVC035
     FM170200 03013KT P6SM BKN035=

USA.gov is the U.S. government's official web portal to all federal, state and local government web resources and services.